createdAt,value
2023-05-19T00:01:05.658Z,2.90
2023-05-19T00:03:55.191Z,3.25
2023-05-19T00:06:45.062Z,2.70
2023-05-19T00:09:32.905Z,3.60
2023-05-19T00:12:20.733Z,3.60
2023-05-19T00:15:09.227Z,3.60
2023-05-19T00:17:56.949Z,3.38
2023-05-19T00:20:44.622Z,3.65
2023-05-19T00:23:32.378Z,3.00
2023-05-19T00:26:20.167Z,2.97
2023-05-19T00:29:07.789Z,3.05
2023-05-19T00:31:56.877Z,2.92
2023-05-19T00:34:44.560Z,3.28
2023-05-19T00:37:32.290Z,3.85
2023-05-19T00:40:20.139Z,3.17
2023-05-19T00:43:08.682Z,3.30
2023-05-19T00:45:57.106Z,2.97
2023-05-19T00:48:47.934Z,3.30
2023-05-19T00:51:37.402Z,3.15
2023-05-19T00:54:25.321Z,3.38
2023-05-19T00:57:15.289Z,3.50
2023-05-19T01:00:04.381Z,3.45
2023-05-19T01:02:56.217Z,3.20
2023-05-19T01:05:47.660Z,3.63
2023-05-19T01:08:37.315Z,3.88
2023-05-19T01:11:25.178Z,3.10
2023-05-19T01:14:12.977Z,4.00
2023-05-19T01:17:12.493Z,3.28
2023-05-19T01:20:08.521Z,3.97
2023-05-19T01:23:02.290Z,4.20
2023-05-19T01:26:28.073Z,3.92
2023-05-19T01:30:09.292Z,3.80
2023-05-19T01:33:03.383Z,3.97
2023-05-19T01:38:40.242Z,3.72
2023-05-19T01:41:29.584Z,3.25
2023-05-19T01:44:17.495Z,4.32
2023-05-19T01:47:05.519Z,3.92
2023-05-19T01:49:53.413Z,3.65
2023-05-19T01:52:41.207Z,4.55
2023-05-19T01:55:29.091Z,4.22
2023-05-19T01:58:46.486Z,3.85
2023-05-19T02:01:57.293Z,4.75
2023-05-19T02:04:55.705Z,3.83
2023-05-19T02:07:57.817Z,3.80
2023-05-19T02:10:58.459Z,4.25
2023-05-19T02:13:50.294Z,3.72
2023-05-19T02:16:39.558Z,4.38
2023-05-19T02:19:28.883Z,3.95
2023-05-19T02:22:16.698Z,4.25
2023-05-19T02:25:04.529Z,3.88
2023-05-19T02:27:56.216Z,4.15
2023-05-19T02:30:43.883Z,3.90
2023-05-19T02:33:31.661Z,4.32
2023-05-19T02:36:22.084Z,4.63
2023-05-19T02:39:11.258Z,4.28
2023-05-19T02:42:02.189Z,4.40
2023-05-19T02:44:50.167Z,3.95
2023-05-19T02:47:38.516Z,4.28
2023-05-19T02:50:26.279Z,4.35
2023-05-19T02:53:13.996Z,4.00
2023-05-19T02:56:01.998Z,3.70
2023-05-19T02:58:53.123Z,4.05
2023-05-19T03:01:41.292Z,3.75
2023-05-19T03:04:30.267Z,4.05
2023-05-19T03:07:18.152Z,4.00
2023-05-19T03:10:06.980Z,4.50
2023-05-19T03:12:54.693Z,3.75
2023-05-19T03:15:42.756Z,4.18
2023-05-19T03:18:30.831Z,3.90
2023-05-19T03:21:18.499Z,3.90
2023-05-19T03:24:06.766Z,4.50
2023-05-19T03:26:54.591Z,4.93
2023-05-19T03:29:42.231Z,4.47
2023-05-19T03:32:29.960Z,4.22
2023-05-19T03:35:18.297Z,4.32
2023-05-19T03:38:06.242Z,4.18
2023-05-19T03:40:54.246Z,4.30
2023-05-19T03:43:42.132Z,4.55
2023-05-19T03:46:30.162Z,4.70
2023-05-19T03:49:18.391Z,4.13
2023-05-19T03:52:06.307Z,4.82
2023-05-19T03:54:53.954Z,4.90
2023-05-19T03:57:41.696Z,4.13
2023-05-19T04:00:29.440Z,5.03
2023-05-19T04:03:17.685Z,4.72
2023-05-19T04:06:05.591Z,4.50
2023-05-19T04:08:53.372Z,4.40
2023-05-19T04:11:44.561Z,4.43
2023-05-19T04:14:32.505Z,4.63
2023-05-19T04:17:20.472Z,4.43
2023-05-19T04:20:08.524Z,4.47
2023-05-19T04:22:56.387Z,3.67
2023-05-19T04:25:44.359Z,3.90
2023-05-19T04:28:32.349Z,4.47
2023-05-19T04:31:25.231Z,4.25
2023-05-19T04:34:13.264Z,4.20
2023-05-19T04:37:01.869Z,3.92
2023-05-19T04:39:49.961Z,3.88
2023-05-19T04:42:38.187Z,4.30
2023-05-19T04:45:26.567Z,4.07
2023-05-19T04:48:15.416Z,4.25
2023-05-19T04:51:03.649Z,4.30
2023-05-19T04:53:51.784Z,3.65
2023-05-19T04:56:39.551Z,3.92
2023-05-19T04:59:27.849Z,3.78
2023-05-19T05:02:18.549Z,3.95
2023-05-19T05:05:06.799Z,4.00
2023-05-19T05:07:55.002Z,3.92
2023-05-19T05:10:42.571Z,3.60
2023-05-19T05:13:30.453Z,3.95
2023-05-19T05:16:18.642Z,4.22
2023-05-19T05:19:06.620Z,4.53
2023-05-19T05:21:54.570Z,4.03
2023-05-19T05:24:42.422Z,3.97
2023-05-19T05:27:30.034Z,4.00
2023-05-19T05:30:17.663Z,4.85
2023-05-19T05:33:06.526Z,3.90
2023-05-19T05:35:54.460Z,3.17
2023-05-19T05:38:42.000Z,3.63
2023-05-19T05:41:35.183Z,4.03
2023-05-19T05:44:23.077Z,3.67
2023-05-19T05:47:12.291Z,3.78
2023-05-19T05:50:00.410Z,3.70
2023-05-19T05:52:49.015Z,3.50
2023-05-19T05:55:37.182Z,3.47
2023-05-19T05:58:25.077Z,2.97
2023-05-19T06:01:12.909Z,3.15
2023-05-19T06:04:00.775Z,3.08
2023-05-19T06:06:51.620Z,3.20
2023-05-19T06:09:39.824Z,2.90
2023-05-19T06:12:30.421Z,3.08
2023-05-19T06:15:18.504Z,3.17
2023-05-19T06:18:09.345Z,2.90
2023-05-19T06:20:57.100Z,3.33
2023-05-19T06:23:53.424Z,2.63
2023-05-19T06:26:46.737Z,2.47
2023-05-19T06:29:34.561Z,3.25
2023-05-19T06:32:25.299Z,2.88
2023-05-19T06:35:13.247Z,2.40
2023-05-19T06:38:03.425Z,2.58
2023-05-19T06:40:51.422Z,2.70
2023-05-19T06:43:39.326Z,2.78
2023-05-19T06:46:27.209Z,2.80
2023-05-19T06:49:17.299Z,2.47
2023-05-19T06:52:06.077Z,2.28
2023-05-19T06:54:58.873Z,2.55
2023-05-19T06:57:51.824Z,2.70
2023-05-19T07:00:39.980Z,2.38
2023-05-19T07:03:31.784Z,2.30
2023-05-19T07:06:22.822Z,2.55
2023-05-19T07:09:11.425Z,2.75
2023-05-19T07:12:04.403Z,3.08
2023-05-19T07:14:57.793Z,2.72
2023-05-19T07:17:47.398Z,2.43
2023-05-19T07:20:37.896Z,2.63
2023-05-19T07:23:29.413Z,3.13
2023-05-19T07:26:17.769Z,2.58
2023-05-19T07:29:09.873Z,2.70
2023-05-19T07:31:58.963Z,2.88
2023-05-19T07:34:48.590Z,2.50
2023-05-19T07:37:38.810Z,2.28
2023-05-19T07:40:30.525Z,2.70
2023-05-19T07:43:25.562Z,2.72
2023-05-19T07:46:15.063Z,3.22
2023-05-19T07:49:08.295Z,2.63
2023-05-19T07:51:59.396Z,3.13
2023-05-19T07:54:51.513Z,2.50
2023-05-19T07:57:39.598Z,2.25
2023-05-19T08:00:30.753Z,3.20
2023-05-19T08:03:23.710Z,2.85
2023-05-19T08:06:12.918Z,2.63
2023-05-19T08:09:06.659Z,2.80
2023-05-19T08:12:00.742Z,3.30
2023-05-19T08:17:43.120Z,2.60
2023-05-19T08:20:34.526Z,2.42
2023-05-19T08:23:29.691Z,2.17
2023-05-19T08:26:20.404Z,2.65
2023-05-19T08:29:12.650Z,2.47
2023-05-19T08:32:06.443Z,2.67
2023-05-19T08:34:59.561Z,2.28
2023-05-19T08:37:50.768Z,2.35
2023-05-19T08:40:49.447Z,2.13
2023-05-19T08:43:42.158Z,2.30
2023-05-19T08:46:31.940Z,2.10
2023-05-19T08:49:32.957Z,2.65
2023-05-19T08:52:53.025Z,2.20
2023-05-19T08:56:00.217Z,2.25
2023-05-19T08:58:56.882Z,2.08
2023-05-19T09:01:47.838Z,2.03
2023-05-19T09:04:41.904Z,2.22
2023-05-19T09:07:35.674Z,2.60
2023-05-19T09:10:28.433Z,2.15
2023-05-19T09:13:19.835Z,2.17
2023-05-19T09:16:11.366Z,2.08
2023-05-19T09:19:14.285Z,2.45
2023-05-19T09:22:06.671Z,2.03
2023-05-19T09:25:04.070Z,2.88
2023-05-19T09:28:18.785Z,1.92
2023-05-19T09:31:12.156Z,2.83
2023-05-19T09:34:20.473Z,2.13
2023-05-19T09:37:17.371Z,2.25
2023-05-19T09:40:16.479Z,2.60
2023-05-19T09:43:13.528Z,2.15
2023-05-19T09:46:12.002Z,2.60
2023-05-19T09:49:09.368Z,2.70
2023-05-19T09:52:04.719Z,2.03
2023-05-19T09:54:55.606Z,2.22
2023-05-19T09:57:49.321Z,2.20
2023-05-19T10:00:38.662Z,2.28
2023-05-19T10:03:27.357Z,2.00
2023-05-19T10:06:22.845Z,2.00
2023-05-19T10:09:19.114Z,2.25
2023-05-19T10:12:11.353Z,2.03
2023-05-19T10:15:00.477Z,2.30
2023-05-19T10:17:51.494Z,2.30
2023-05-19T10:20:41.506Z,1.92
2023-05-19T10:23:33.154Z,1.98
2023-05-19T10:26:36.375Z,1.70
2023-05-19T10:29:33.641Z,1.77
2023-05-19T10:32:32.382Z,2.05
2023-05-19T10:35:59.966Z,2.22
2023-05-19T10:39:19.642Z,1.95
2023-05-19T10:42:25.868Z,2.42
2023-05-19T10:45:27.703Z,2.50
2023-05-19T10:48:21.239Z,1.83
2023-05-19T10:51:16.827Z,1.80
2023-05-19T10:54:14.290Z,1.80
2023-05-19T10:57:07.209Z,1.95
2023-05-19T10:59:58.009Z,2.13
2023-05-19T11:02:48.036Z,2.10
2023-05-19T11:05:38.639Z,2.00
2023-05-19T11:08:35.216Z,2.53
2023-05-19T11:11:28.457Z,1.80
2023-05-19T11:14:27.889Z,1.90
2023-05-19T11:17:19.290Z,2.25
2023-05-19T11:20:11.836Z,2.25
2023-05-19T11:23:18.522Z,1.83
2023-05-19T11:26:09.369Z,2.00
2023-05-19T11:29:00.195Z,2.20
2023-05-19T11:31:52.028Z,1.95
2023-05-19T11:34:44.275Z,1.98
2023-05-19T11:37:35.276Z,2.33
2023-05-19T11:40:25.796Z,2.10
2023-05-19T11:43:16.825Z,1.77
2023-05-19T11:46:06.747Z,2.10
2023-05-19T11:48:59.080Z,2.00
2023-05-19T11:51:48.869Z,2.55
2023-05-19T11:54:39.448Z,2.00
2023-05-19T11:57:29.268Z,2.17
2023-05-19T12:00:18.252Z,2.00
2023-05-19T12:03:09.198Z,1.80
2023-05-19T12:05:59.873Z,2.17
2023-05-19T12:08:51.470Z,2.10
2023-05-19T12:11:41.771Z,2.28
2023-05-19T12:14:31.889Z,1.95
2023-05-19T12:17:24.620Z,2.47
2023-05-19T12:20:14.894Z,2.05
2023-05-19T12:23:05.139Z,2.13
2023-05-19T12:25:54.794Z,2.00
2023-05-19T12:28:46.459Z,2.30
2023-05-19T12:31:38.123Z,1.98
2023-05-19T12:34:32.213Z,2.10
2023-05-19T12:37:23.096Z,2.10
2023-05-19T12:40:18.893Z,2.50
2023-05-19T12:43:09.869Z,2.15
2023-05-19T12:46:09.479Z,1.88
2023-05-19T12:49:03.215Z,2.05
2023-05-19T12:51:54.526Z,2.03
2023-05-19T12:54:46.886Z,1.98
2023-05-19T12:57:35.635Z,2.35
2023-05-19T13:00:31.121Z,2.13
2023-05-19T13:03:22.493Z,2.10
2023-05-19T13:06:13.858Z,1.90
2023-05-19T13:09:03.844Z,2.30
2023-05-19T13:11:54.883Z,2.17
2023-05-19T13:14:44.826Z,2.40
2023-05-19T13:17:34.786Z,2.40
2023-05-19T13:20:22.796Z,2.50
2023-05-19T13:23:11.324Z,2.15
2023-05-19T13:25:59.447Z,2.38
2023-05-19T13:28:51.116Z,2.45
2023-05-19T13:31:41.596Z,2.80
2023-05-19T13:34:31.398Z,2.17
2023-05-19T13:37:20.393Z,2.20
2023-05-19T13:40:09.569Z,1.85
2023-05-19T13:42:59.618Z,2.15
2023-05-19T13:45:47.604Z,2.00
2023-05-19T13:48:37.931Z,2.20
2023-05-19T13:51:27.726Z,2.00
2023-05-19T13:54:17.937Z,1.98
2023-05-19T13:57:06.316Z,1.95
2023-05-19T14:00:01.808Z,2.13
2023-05-19T14:02:53.390Z,2.17
2023-05-19T14:05:43.508Z,1.75
2023-05-19T14:08:33.593Z,2.25
2023-05-19T14:11:24.148Z,2.78
2023-05-19T14:14:13.865Z,2.30
2023-05-19T14:17:03.695Z,2.00
2023-05-19T14:19:52.666Z,1.83
2023-05-19T14:22:42.913Z,2.50
2023-05-19T14:25:31.872Z,2.08
2023-05-19T14:28:21.960Z,2.25
2023-05-19T14:31:13.305Z,2.30
2023-05-19T14:34:02.411Z,2.17
2023-05-19T14:36:50.494Z,2.00
2023-05-19T14:39:40.559Z,1.90
2023-05-19T14:42:29.546Z,2.30
2023-05-19T14:45:18.801Z,2.40
2023-05-19T14:48:10.917Z,2.38
2023-05-19T14:51:01.199Z,2.17
2023-05-19T14:53:51.461Z,2.10
2023-05-19T14:56:41.658Z,2.00
2023-05-19T14:59:31.940Z,2.03
2023-05-19T15:02:24.319Z,2.58
2023-05-19T15:05:13.132Z,2.40
2023-05-19T15:08:06.173Z,2.47
2023-05-19T15:10:55.613Z,2.40
2023-05-19T15:13:43.473Z,2.53
2023-05-19T15:16:33.773Z,2.60
2023-05-19T15:19:21.442Z,2.50
2023-05-19T15:22:10.379Z,2.97
2023-05-19T15:24:58.336Z,2.47
2023-05-19T15:27:46.034Z,2.75
2023-05-19T15:30:34.715Z,2.90
2023-05-19T15:33:22.701Z,2.63
2023-05-19T15:36:16.374Z,2.22
2023-05-19T15:39:06.783Z,2.10
2023-05-19T15:41:58.263Z,2.30
2023-05-19T15:44:46.441Z,2.30
2023-05-19T15:47:37.847Z,2.33
2023-05-19T15:50:26.838Z,2.03
2023-05-19T15:53:14.587Z,2.63
2023-05-19T15:56:03.969Z,2.20
2023-05-19T15:58:52.392Z,2.63
2023-05-19T16:01:40.734Z,2.05
2023-05-19T16:04:28.475Z,2.60
2023-05-19T16:07:16.931Z,2.60
2023-05-19T16:10:04.939Z,2.40
2023-05-19T16:12:52.732Z,2.08
2023-05-19T16:15:40.660Z,2.55
2023-05-19T16:18:29.413Z,2.80
2023-05-19T16:21:17.214Z,2.30
2023-05-19T16:24:04.999Z,1.98
2023-05-19T16:26:53.965Z,2.20
2023-05-19T16:29:41.802Z,2.42
2023-05-19T16:32:31.873Z,2.08
2023-05-19T16:35:20.117Z,1.98
2023-05-19T16:38:07.862Z,2.17
2023-05-19T16:40:55.782Z,1.98
2023-05-19T16:43:43.593Z,2.38
2023-05-19T16:46:31.778Z,2.28
2023-05-19T16:49:19.795Z,1.98
2023-05-19T16:52:08.083Z,2.60
2023-05-19T16:54:55.759Z,2.50
2023-05-19T16:57:43.630Z,2.08
2023-05-19T17:00:31.508Z,2.22
2023-05-19T17:03:19.619Z,1.98
2023-05-19T17:06:07.302Z,2.30
2023-05-19T17:08:57.921Z,2.10
2023-05-19T17:11:45.994Z,1.98
2023-05-19T17:14:34.013Z,2.40
2023-05-19T17:17:21.768Z,2.38
2023-05-19T17:20:10.004Z,2.25
2023-05-19T17:22:58.289Z,1.95
2023-05-19T17:25:46.091Z,2.05
2023-05-19T17:28:33.928Z,2.20
2023-05-19T17:31:21.611Z,2.10
2023-05-19T17:34:09.883Z,2.28
2023-05-19T17:36:57.725Z,1.90
2023-05-19T17:39:45.577Z,2.10
2023-05-19T17:42:33.181Z,1.95
2023-05-19T17:45:23.425Z,2.38
2023-05-19T17:48:11.740Z,2.15
2023-05-19T17:51:00.228Z,2.13
2023-05-19T17:53:49.867Z,2.15
2023-05-19T17:56:42.805Z,1.92
2023-05-19T17:59:31.497Z,2.00
2023-05-19T18:02:19.481Z,1.80
2023-05-19T18:05:07.725Z,1.80
2023-05-19T18:07:56.672Z,2.22
2023-05-19T18:10:46.243Z,2.33
2023-05-19T18:13:34.022Z,1.85
2023-05-19T18:16:21.841Z,2.47
2023-05-19T18:19:09.575Z,1.85
2023-05-19T18:22:00.396Z,1.63
2023-05-19T18:24:49.075Z,2.33
2023-05-19T18:27:39.834Z,2.30
2023-05-19T18:30:27.894Z,1.55
2023-05-19T18:33:18.801Z,1.85
2023-05-19T18:36:06.887Z,2.17
2023-05-19T18:38:55.618Z,1.98
2023-05-19T18:41:43.762Z,1.95
2023-05-19T18:44:31.454Z,2.20
2023-05-19T18:47:19.908Z,2.03
2023-05-19T18:50:12.219Z,2.20
2023-05-19T18:53:05.524Z,2.10
2023-05-19T18:55:53.426Z,1.80
2023-05-19T18:58:41.426Z,1.95
2023-05-19T19:01:29.420Z,2.30
2023-05-19T19:04:17.762Z,2.45
2023-05-19T19:07:06.286Z,2.55
2023-05-19T19:09:57.616Z,2.10
2023-05-19T19:12:45.510Z,2.40
2023-05-19T19:15:34.157Z,2.63
2023-05-19T19:18:21.830Z,2.13
2023-05-19T19:21:09.879Z,2.20
2023-05-19T19:23:58.074Z,2.65
2023-05-19T19:26:45.912Z,2.40
2023-05-19T19:29:36.798Z,2.28
2023-05-19T19:32:36.265Z,2.05
2023-05-19T19:35:33.139Z,2.50
2023-05-19T19:38:23.058Z,2.08
2023-05-19T19:41:14.541Z,2.38
2023-05-19T19:44:07.914Z,2.20
2023-05-19T19:46:55.903Z,2.37
2023-05-19T19:49:45.915Z,2.60
2023-05-19T19:52:34.279Z,2.30
2023-05-19T19:55:22.418Z,2.40
2023-05-19T19:58:11.420Z,2.25
2023-05-19T20:01:05.137Z,1.95
2023-05-19T20:03:57.841Z,2.25
2023-05-19T20:06:46.288Z,2.25
2023-05-19T20:09:34.613Z,2.60
2023-05-19T20:12:26.815Z,2.03
2023-05-19T20:15:19.228Z,2.63
2023-05-19T20:18:09.326Z,2.33
2023-05-19T20:21:00.630Z,2.10
2023-05-19T20:23:54.828Z,2.20
2023-05-19T20:29:37.918Z,2.55
2023-05-19T20:32:28.023Z,2.40
2023-05-19T20:35:24.104Z,2.53
2023-05-19T20:38:15.352Z,2.35
2023-05-19T20:41:08.123Z,2.10
2023-05-19T20:43:59.018Z,2.78
2023-05-19T20:46:49.310Z,2.47
2023-05-19T20:49:40.085Z,2.13
2023-05-19T20:52:27.865Z,2.38
2023-05-19T20:55:15.974Z,2.42
2023-05-19T20:58:04.476Z,2.30
2023-05-19T21:00:58.184Z,2.58
2023-05-19T21:03:46.071Z,2.13
2023-05-19T21:06:34.287Z,2.80
2023-05-19T21:09:22.633Z,2.60
2023-05-19T21:12:13.587Z,2.70
2023-05-19T21:15:04.000Z,3.00
2023-05-19T21:17:52.106Z,2.92
2023-05-19T21:20:40.775Z,2.53
2023-05-19T21:23:31.213Z,2.72
2023-05-19T21:26:19.318Z,2.60
2023-05-19T21:29:09.484Z,2.95
2023-05-19T21:32:04.748Z,2.90
2023-05-19T21:34:52.530Z,2.70
2023-05-19T21:37:40.654Z,2.75
2023-05-19T21:40:34.896Z,2.35
2023-05-19T21:43:24.034Z,2.55
2023-05-19T21:46:12.140Z,2.70
2023-05-19T21:49:00.410Z,2.90
2023-05-19T21:51:48.790Z,2.42
2023-05-19T21:54:36.631Z,2.88
2023-05-19T21:57:24.420Z,2.85
2023-05-19T22:00:13.980Z,2.97
2023-05-19T22:03:01.951Z,3.00
2023-05-19T22:05:53.433Z,2.90
2023-05-19T22:08:44.348Z,3.17
2023-05-19T22:11:32.344Z,2.95
2023-05-19T22:14:20.037Z,3.13
2023-05-19T22:17:08.157Z,2.97
2023-05-19T22:19:55.813Z,2.90
2023-05-19T22:22:45.915Z,2.70
2023-05-19T22:25:36.308Z,2.63
2023-05-19T22:28:24.059Z,3.10
2023-05-19T22:31:11.948Z,2.95
2023-05-19T22:34:02.900Z,2.78
2023-05-19T22:36:50.818Z,3.28
2023-05-19T22:39:39.391Z,2.85
2023-05-19T22:42:27.388Z,3.15
2023-05-19T22:45:15.788Z,2.50
2023-05-19T22:48:03.942Z,3.10
2023-05-19T22:50:51.730Z,2.90
2023-05-19T22:53:39.587Z,3.03
2023-05-19T22:56:27.921Z,2.80
2023-05-19T22:59:18.239Z,2.90
2023-05-19T23:02:06.667Z,3.10
2023-05-19T23:04:54.698Z,3.03
2023-05-19T23:07:42.703Z,2.75
2023-05-19T23:10:30.957Z,2.88
2023-05-19T23:13:18.910Z,3.10
2023-05-19T23:16:09.550Z,3.03
2023-05-19T23:18:57.988Z,3.30
2023-05-19T23:21:49.520Z,3.28
2023-05-19T23:24:40.275Z,3.20
2023-05-19T23:27:28.042Z,2.95
2023-05-19T23:30:16.376Z,3.13
2023-05-19T23:33:07.601Z,3.33
2023-05-19T23:35:55.493Z,3.25
2023-05-19T23:38:49.070Z,3.35
2023-05-19T23:41:36.869Z,2.97
2023-05-19T23:44:24.923Z,3.00
2023-05-19T23:47:12.578Z,3.15
2023-05-19T23:50:05.641Z,3.40
2023-05-19T23:52:53.491Z,3.22
2023-05-19T23:55:41.663Z,3.45
2023-05-19T23:58:32.180Z,3.10
